Weather reports worldwide

Advertisment
Zinnwald-Georgenfeld, Germany (10582): temperature & dewpoint: 11.08.2018 14:00:00 - 17.08.2018 14:00:00 (CEST)Zinnwald-Georgenfeld, Germany (10582): temperature 5cm & temperature -5cm: 11.08.2018 14:00:00 - 17.08.2018 14:00:00 (CEST)Zinnwald-Georgenfeld, Germany (10582): temperature -20cm & temperature -100cm: 11.08.2018 14:00:00 - 17.08.2018 14:00:00 (CEST)Zinnwald-Georgenfeld, Germany (10582): wind speed & gusts: 11.08.2018 14:00:00 - 17.08.2018 14:00:00 (CEST)Zinnwald-Georgenfeld, Germany (10582): wind direction: 11.08.2018 14:00:00 - 17.08.2018 14:00:00 (CEST)Zinnwald-Georgenfeld, Germany (10582): visibility: 11.08.2018 14:00:00 - 17.08.2018 14:00:00 (CEST)Zinnwald-Georgenfeld, Germany (10582): sunshine duration: 11.08.2018 14:00:00 - 17.08.2018 14:00:00 (CEST)Zinnwald-Georgenfeld, Germany (10582): precipitation: 11.08.2018 14:00:00 - 17.08.2018 14:00:00 (CEST)
Date & Time tt [°C] td [°C] tt 5cm [°C] tt -5cm [°C] tt -20cm [°C] tt -100cm [°C] ff [km/h] ff [kn] fx [km/h] fx [kn] dd vv [km] sd [min] rr [mm]
17.08.2018 14:00:00 23,5 10,1 25,2 29,4 20,7 16,3 5 3 24 13 SW 44 19 0,0
17.08.2018 13:00:00 24,1 10,2 29,7 32,8 19,5 16,3 15 8 23 12 SSE 25 60 0,0
17.08.2018 12:00:00 23,3 10,8 27,7 29,6 18,5 16,3 14 7 23 12 SSE 23 59 0,0
17.08.2018 11:00:00 22,6 10,6 25,6 26,3 17,7 16,3 15 8 22 12 SSE 28 58 0,0
17.08.2018 10:00:00 21,9 10,6 23,6 23,2 17,2 16,3 12 7 18 10 SE 27 60 0,0
17.08.2018 09:00:00 21,1 10,2 22,5 19,7 17,0 16,3 9 5 19 10 SSW 38 60 0,0
17.08.2018 08:00:00 19,3 9,7 19,3 16,1 17,1 16,3 11 6 17 9 SSW 53 55 0,0
17.08.2018 07:00:00 16,2 8,8 13,8 13,7 17,4 16,3 12 6 22 12 SSW 63 24 0,0
17.08.2018 06:00:00 14,9 7,9 11,5 13,5 17,8 16,3 16 9 17 9 SSW 64 0 0,0
17.08.2018 05:00:00 14,5 7,5 11,2 13,9 18,2 16,3 14 7 17 9 S 65 0 0,0
17.08.2018 04:00:00 15,9 7,2 12,7 14,5 18,6 16,3 16 8 21 11 S 70 0 0,0
17.08.2018 03:00:00 15,3 7,3 12,9 15,1 19,1 16,4 16 8 24 13 SSE 66 0 0,0
17.08.2018 02:00:00 16,4 7,4 14,3 15,7 19,6 16,4 18 10 23 13 S 60 0 0,0
17.08.2018 01:00:00 15,9 7,6 13,8 16,3 20,1 16,4 16 8 22 12 SSE 69 0 0,0
17.08.2018 00:00:00 17,0 7,9 15,1 17,2 20,6 16,4 17 9 27 14 SSE 56 0 0,0
16.08.2018 23:00:00 17,6 8,2 15,8 18,1 21,2 16,4 16 8 21 11 SSE 67 0 0,0
16.08.2018 22:00:00 17,5 8,4 14,6 19,2 21,8 16,4 12 6 17 9 SSE 68 0 0,0
16.08.2018 21:00:00 18,6 8,6 15,0 20,9 22,2 16,4 9 5 14 8 SSE 39 0 0,0
16.08.2018 20:00:00 20,5 9,0 18,1 23,5 22,4 16,4 7 4 13 7 SE 69 55 0,0
16.08.2018 19:00:00 21,9 9,4 23,1 26,5 22,3 16,4 11 6 21 11 SE 68 60 0,0
16.08.2018 18:00:00 22,3 9,2 24,6 28,7 21,9 16,4 11 6 23 12 SSE 27 60 0,0
16.08.2018 17:00:00 22,9 10,2 26,1 30,1 21,3 16,4 16 8 27 15 S 22 57 0,0
16.08.2018 16:00:00 22,1 9,8 24,4 30,6 20,5 16,4 16 9 27 15 SSE 22 53 0,0
16.08.2018 15:00:00 22,3 9,6 26,6 31,2 19,4 16,5 18 10 32 17 S 20 60 0,0
16.08.2018 14:00:00 21,7 10,1 26,4 30,1 18,3 16,5 16 9 29 16 SSE 21 60 0,0
16.08.2018 13:00:00 21,0 10,9 25,4 28,8 17,2 16,5 14 7 34 19 S 23 60 0,0
16.08.2018 12:00:00 19,9 10,2 23,5 26,4 16,1 16,5 19 10 27 15 S 31 60 0,0
16.08.2018 11:00:00 19,3 9,7 22,3 23,5 15,3 16,5 15 8 25 14 S 27 60 0,0
16.08.2018 10:00:00 18,4 9,4 20,7 20,0 14,8 16,5 17 9 25 13 SSE 24 44 0,0
16.08.2018 09:00:00 16,4 9,9 16,9 15,4 14,7 16,5 14 8 19 11 S 57 7 0,0
16.08.2018 08:00:00 14,4 10,0 13,7 12,9 14,8 16,5 10 5 14 7 S 41 0 0,0
16.08.2018 07:00:00 13,0 9,0 10,8 11,1 15,0 16,5 9 5 14 8 S 38 0 0,0
16.08.2018 06:00:00 12,7 8,7 9,5 10,7 15,3 16,5 11 6 13 7 S 27 0 0,0
16.08.2018 05:00:00 12,7 8,9 9,0 10,9 15,7 16,5 9 5 13 7 S 22 0 0,0
16.08.2018 04:00:00 13,2 8,8 8,4 11,3 16,0 16,5 8 4 11 6 S 25 0 0,0
16.08.2018 03:00:00 13,5 8,9 8,8 11,7 16,4 16,5 8 4 10 5 SSE 29 0 0,0
16.08.2018 02:00:00 13,9 9,1 9,1 12,1 16,8 16,6 7 4 8 4 SSE 20 0 0,0
16.08.2018 01:00:00 14,1 9,0 8,7 12,6 17,3 16,6 5 3 6 4 SSE 25 0 0,0
16.08.2018 00:00:00 14,2 9,0 8,5 13,3 17,7 16,6 4 2 14 7 ENE 28 0 0,0
15.08.2018 23:00:00 14,6 9,2 12,4 14,3 18,1 16,6 12 7 16 9 N 36 0 0,0
15.08.2018 22:00:00 14,9 9,1 12,8 15,1 18,5 16,6 12 7 18 10 N 30 0 0,0
15.08.2018 21:00:00 15,4 9,2 13,8 16,2 18,8 16,6 14 8 18 10 NNW 36 0 0,0
15.08.2018 20:00:00 16,9 9,7 15,0 18,1 19,0 16,6 10 5 19 10 NNW 37 15 0,0
15.08.2018 19:00:00 18,2 9,4 17,2 20,5 18,9 16,6 11 6 29 16 NW 42 45 0,0
15.08.2018 18:00:00 19,0 8,9 20,3 21,8 18,7 16,6 17 9 26 14 NW 26 25 0,0
15.08.2018 17:00:00 18,7 9,5 18,7 22,7 18,3 16,6 12 6 31 17 NW 42 36 0,0
15.08.2018 16:00:00 18,8 9,8 22,4 22,5 18,0 16,6 13 7 26 14 WNW 41 12 0,0
15.08.2018 15:00:00 17,2 9,5 17,9 20,6 17,8 16,6 16 8 25 14 NW 52 4 0,0
15.08.2018 14:00:00 16,8 9,3 17,1 20,1 17,3 16,6 14 8 25 14 NW 64 3 0,0
15.08.2018 13:00:00 18,1 10,1 22,3 22,8 16,7 16,6 10 5 27 15 NW 46 25 0,0
15.08.2018 12:00:00 16,7 9,4 19,5 20,7 16,2 16,6 19 11 31 17 WNW 39 37 0,0
15.08.2018 11:00:00 15,8 10,3 18,6 19,1 15,8 16,6 16 9 30 16 NW 23 28 0,0
15.08.2018 10:00:00 13,9 10,5 15,1 16,8 15,6 16,6 12 6 29 16 WNW 22 16 0,0
15.08.2018 09:00:00 12,9 10,3 13,5 15,0 15,6 16,6 14 8 27 15 NNW 10 5 0,0
15.08.2018 08:00:00 12,3 10,5 13,0 14,4 15,7 16,7 17 9 26 14 WNW 13 10 0,0
15.08.2018 07:00:00 11,8 10,6 12,0 13,1 15,8 16,7 14 8 28 15 NW 11 1 0,0
15.08.2018 06:00:00 11,6 10,2 11,1 12,5 16,1 16,7 16 9 31 17 NW 20 0 0,0
15.08.2018 05:00:00 12,0 10,6 11,3 12,4 16,4 16,7 19 11 35 19 NW 15 0 0,0
15.08.2018 04:00:00 12,1 10,5 11,1 12,3 16,7 16,7 15 8 34 19 NW 20 0 0,0
15.08.2018 03:00:00 11,9 10,4 11,0 12,5 17,1 16,7 20 11 36 19 NW 19 0 0,0
15.08.2018 02:00:00 12,2 10,8 11,5 12,9 17,5 16,7 23 12 39 21 NW 16 0 0,0
15.08.2018 01:00:00 12,3 10,7 11,3 13,5 17,9 16,7 21 11 37 20 NW 26 0 0,0
15.08.2018 00:00:00 13,4 11,6 13,2 14,6 18,3 16,7 21 11 39 21 NNW 15 0 0,0
14.08.2018 23:00:00 13,9 11,3 13,4 14,8 18,7 16,7 21 12 36 19 WNW 25 0 0,0
14.08.2018 22:00:00 14,3 11,0 13,5 15,4 19,2 16,7 12 6 34 18 WNW 32 0 0,0
14.08.2018 21:00:00 14,5 10,8 13,8 16,1 19,6 16,7 20 11 46 25 WNW 37 0 0,0
14.08.2018 20:00:00 15,9 10,9 15,7 17,7 19,9 16,7 23 12 44 24 NW 60 7 0,0
14.08.2018 19:00:00 17,7 10,0 17,1 20,0 20,0 16,7 22 12 37 20 WNW 70 54 0,0
14.08.2018 18:00:00 19,1 9,6 21,5 21,3 20,0 16,7 18 10 33 18 WNW 52 41 0,0
14.08.2018 17:00:00 19,1 9,9 20,6 22,8 19,7 16,7 20 11 34 19 W 55 43 0,0
14.08.2018 16:00:00 19,8 10,2 22,0 24,3 19,3 16,7 13 7 38 20 NW 59 47 0,0
14.08.2018 15:00:00 18,8 10,3 21,4 22,2 19,0 16,7 19 11 33 18 W 70 20 0,0
14.08.2018 14:00:00 17,5 9,8 18,4 20,4 18,8 16,7 14 8 32 17 W 70 8 0,0
14.08.2018 13:00:00 17,2 9,2 18,1 21,1 18,5 16,7 19 10 34 18 W 70 14 0,0
14.08.2018 12:00:00 16,7 10,3 17,6 21,8 18,0 16,7 14 8 29 16 W 70 28 0,0
14.08.2018 11:00:00 16,6 11,4 18,9 22,8 17,5 16,7 19 11 33 18 WSW 27 40 0,0
14.08.2018 10:00:00 16,1 12,0 17,7 20,8 17,2 16,7 18 10 28 15 WSW 27 55 0,0
14.08.2018 09:00:00 14,3 12,5 15,2 17,3 17,1 16,7 11 6 29 16 W 47 14 0,0
14.08.2018 08:00:00 13,7 12,1 13,7 15,6 17,3 16,7 13 7 26 14 W 43 52 0,0
14.08.2018 07:00:00 12,7 11,5 12,0 13,7 17,7 16,7 11 6 26 14 WSW 31 12 0,0
14.08.2018 06:00:00 13,0 11,7 11,7 14,0 18,0 16,7 16 8 28 15 W 29 0 0,0
14.08.2018 05:00:00 13,8 12,5 13,0 15,2 18,3 16,7 18 10 26 14 WSW 29 0 0,0
14.08.2018 04:00:00 13,7 12,9 13,3 15,5 18,7 16,7 18 10 24 13 SSW 10 0 0,8
14.08.2018 03:00:00 14,2 13,0 13,6 15,8 19,1 16,7 19 10 29 16 WSW 3,8 0 1,9
14.08.2018 02:00:00 13,8 13,2 13,6 16,0 19,5 16,7 18 10 24 13 S 2,8 0 0,8
14.08.2018 01:00:00 13,8 13,3 13,7 16,3 19,9 16,7 21 12 30 16 S 0,1 0 1,1
14.08.2018 00:00:00 14,3 12,8 13,6 16,8 20,4 16,7 15 8 27 15 S 26 0 1,0
13.08.2018 23:00:00 15,2 12,8 14,0 17,6 20,8 16,7 22 12 30 16 SW 11 0 0,4
13.08.2018 22:00:00 17,3 11,6 16,2 18,5 21,3 16,7 10 5 16 9 WNW 50 0 0,0
13.08.2018 21:00:00 18,5 10,3 17,4 19,0 21,9 16,7 13 7 19 10 NW 70 0 0,0
13.08.2018 20:00:00 18,7 10,7 17,5 20,0 22,5 16,7 10 6 19 11 NNW 61 0 0,0
13.08.2018 19:00:00 18,3 11,8 16,6 21,3 23,0 16,7 16 9 23 13 NW 70 0 0,0
13.08.2018 18:00:00 19,0 12,9 16,7 23,6 23,4 16,8 15 8 35 19 NNW 70 0 0,7
13.08.2018 17:00:00 22,7 10,1 20,6 27,4 23,2 16,8 13 7 34 18 NW 58 6 0,3
13.08.2018 16:00:00 27,2 8,4 31,5 33,9 22,4 16,8 23 12 42 23 SSW 60 38 0,0
13.08.2018 15:00:00 26,6 8,5 31,0 34,3 21,4 16,8 16 9 40 21 SSW 21 59 0,0
13.08.2018 14:00:00 25,6 9,1 31,2 33,0 20,3 16,8 24 13 38 20 S 22 60 0,0
13.08.2018 13:00:00 23,9 8,7 28,7 31,7 19,2 16,8 21 11 35 19 S 16 60 0,0
13.08.2018 12:00:00 23,2 8,3 27,3 29,6 18,1 16,8 19 11 30 16 SSE 19 60 0,0
13.08.2018 11:00:00 22,1 7,2 25,2 26,7 17,2 16,8 19 10 29 16 SSE 28 60 0,0
13.08.2018 10:00:00 21,0 8,2 24,3 23,1 16,6 16,8 25 13 31 17 SSW 19 60 0,0
13.08.2018 09:00:00 20,3 6,4 22,1 19,6 16,4 16,8 18 10 26 14 S 17 60 0,0
13.08.2018 08:00:00 19,6 6,4 19,8 16,0 16,4 16,8 19 10 26 14 SSW 31 60 0,0
13.08.2018 07:00:00 16,1 5,0 14,4 13,0 16,7 16,9 16 9 19 11 S 50 36 0,0
13.08.2018 06:00:00 14,4 3,6 11,0 12,6 17,1 16,9 16 9 18 10 S 70 0 0,0
13.08.2018 05:00:00 14,5 3,8 10,5 13,0 17,5 16,9 15 8 20 11 S 70 0 0,0
13.08.2018 04:00:00 14,8 4,0 11,2 13,6 17,9 16,9 14 8 19 10 S 70 0 0,0
13.08.2018 03:00:00 16,2 4,3 13,7 14,1 18,3 16,9 19 10 22 12 S 70 0 0,0
13.08.2018 02:00:00 15,8 3,9 12,4 14,4 18,8 16,9 20 11 23 12 S 70 0 0,0
13.08.2018 01:00:00 15,8 3,6 12,4 15,1 19,3 16,9 17 9 21 12 SSW 70 0 0,0
13.08.2018 00:00:00 15,8 3,8 12,1 15,9 19,9 17,0 16 9 18 10 S 70 0 0,0
12.08.2018 23:00:00 15,9 4,3 12,2 16,9 20,4 17,0 13 7 18 10 S 70 0 0,0
12.08.2018 22:00:00 16,4 4,3 13,2 18,1 20,9 17,0 13 7 16 9 S 70 0 0,0
12.08.2018 21:00:00 16,9 4,2 13,7 19,8 21,4 17,0 15 8 21 11 S 70 0 0,0
12.08.2018 20:00:00 18,8 4,7 16,5 22,5 21,5 17,0 13 7 21 11 S 70 46 0,0
12.08.2018 19:00:00 20,8 4,9 22,2 25,4 21,4 17,1 15 8 25 14 S 37 60 0,0
12.08.2018 18:00:00 21,1 4,5 23,2 27,7 21,0 17,1 23 12 35 19 S 46 60 0,0
12.08.2018 17:00:00 21,2 5,3 24,4 29,4 20,3 17,1 17 9 37 20 S 20 60 0,0
12.08.2018 16:00:00 21,0 5,0 25,1 30,1 19,3 17,1 22 12 37 20 WSW 13 60 0,0
12.08.2018 15:00:00 20,4 4,9 25,1 29,1 18,4 17,1 18 10 32 18 WSW 14 57 0,0
12.08.2018 14:00:00 19,6 5,5 25,1 28,1 17,3 17,1 13 7 33 18 SSW 24 60 0,0
12.08.2018 13:00:00 18,1 4,7 23,4 26,8 16,2 17,2 19 10 34 18 SSW 13 60 0,0
12.08.2018 12:00:00 17,6 4,4 22,6 24,6 15,3 17,2 22 12 32 17 SSW 22 60 0,0
12.08.2018 11:00:00 16,6 4,1 19,8 21,6 14,5 17,2 19 11 32 17 S 17 60 0,0
12.08.2018 10:00:00 15,7 3,6 18,0 18,4 14,0 17,2 21 11 34 18 SSE 21 60 0,0
12.08.2018 09:00:00 14,5 3,2 15,4 14,9 13,7 17,2 18 10 27 15 SSE 30 60 0,0
12.08.2018 08:00:00 12,7 3,8 13,1 11,5 13,8 17,2 14 7 19 10 S 29 60 0,0
12.08.2018 07:00:00 10,5 2,9 9,3 8,8 14,1 17,3 10 6 16 9 S 34 38 0,0
12.08.2018 06:00:00 9,9 1,4 6,3 8,2 14,5 17,3 13 7 15 8 S 70 0 0,0
12.08.2018 05:00:00 9,9 1,9 5,3 8,5 14,9 17,3 8 4 13 7 S 70 0 0,0
12.08.2018 04:00:00 10,0 1,6 5,1 8,8 15,4 17,3 9 5 11 6 S 70 0 0,0
12.08.2018 03:00:00 10,5 1,7 5,6 9,5 15,9 17,3 11 6 16 9 NNW 70 0 0,0
12.08.2018 02:00:00 10,9 1,7 7,0 10,1 16,3 17,4 13 7 18 10 NNW 70 0 0,0
12.08.2018 01:00:00 11,3 2,4 8,9 10,9 16,8 17,4 15 8 19 10 NNW 70 0 0,0
12.08.2018 00:00:00 11,8 2,7 10,0 11,6 17,3 17,4 16 8 20 11 N 70 0 0,0
11.08.2018 23:00:00 12,4 2,9 10,4 12,6 17,8 17,4 16 8 21 11 NNW 70 0 0,0
11.08.2018 22:00:00 13,2 3,0 10,8 13,9 18,3 17,4 10 6 16 9 NNW 70 0 0,0
11.08.2018 21:00:00 14,3 3,0 12,4 15,2 18,7 17,5 11 6 27 14 NNW 70 4 0,0
11.08.2018 20:00:00 16,9 4,7 14,8 17,4 18,8 17,5 8 5 20 11 NW 70 45 0,0
11.08.2018 19:00:00 17,1 5,7 16,0 19,7 18,8 17,5 14 8 27 14 NW 70 34 0,0
11.08.2018 18:00:00 17,3 5,4 17,0 20,6 18,6 17,5 14 7 43 23 WNW 70 31 0,0
11.08.2018 17:00:00 18,0 4,4 18,1 21,5 18,2 17,5 15 8 39 21 WNW 70 35 0,0
11.08.2018 16:00:00 19,0 4,4 21,4 22,2 17,6 17,5 23 13 44 24 W 70 36 0,0
11.08.2018 15:00:00 19,1 4,1 20,7 23,1 17,0 17,5 29 16 47 25 WSW 25 50 0,0
11.08.2018 14:00:00 18,3 6,0 20,5 21,8 16,5 17,6 25 14 40 22 W 36 39 0,0

tt = temperature
td = dewpoint
tt 5cm = temperature 5cm
tt -5cm = temperature -5cm
tt -20cm = temperature -20cm
tt -100cm = temperature -100cm
ff = wind speed
fx = gusts
dd = wind direction
vv = visibility
sd = sunshine duration
rr = precipitation

Next stations